Terminal Aerodrome Forecast
Issued by NWS

Home | Current Version | Previous Version | Text Only | Print | Product List | Glossary On
Versions: 1 2 3 4 5 6 7 8 9 10 11 12 13 14 15 16 17 18 19 20
742
FTUS43 KGRB 261732
TAFCWA
TAF
KCWA 261732Z 2618/2718 26017G30KT P6SM VCSH BKN050
     FM262100 27017G25KT P6SM VCSH OVC050
     FM270100 28015KT P6SM BKN080 PROB30 2703/2705 -SHRA OVC040
     FM271200 27012G20KT P6SM BKN025
     FM271400 28013G21KT P6SM BKN015=

USA.gov is the U.S. government's official web portal to all federal, state and local government web resources and services.